Time;durP1;ratioP1;P1;durP2;ratioP2;P2;SDS_P1;SDS_P2;PMS_P1;PMS_P2;Temp;Humidity;BMP_temperature;BMP_pressure;BME280_temperature;BME280_humidity;BME280_pressure;Samples;Min_cycle;Max_cycle;Signal;HPM_P1;HPM_P2
2023/08/03 00:01:31;;;;;;;;;;;16.50;99.90;;;;;;7321299;19;9189;-84
2023/08/03 00:04:02;;;;;;;;;;;16.50;99.90;;;;;;7320910;19;9305;-83
2023/08/03 00:06:31;;;;;;;;;;;16.60;99.90;;;;;;7321929;19;9526;-82
2023/08/03 00:09:00;;;;;;;;;;;16.60;99.90;;;;;;7320807;19;9321;-84
2023/08/03 00:11:29;;;;;;;;;;;16.50;99.90;;;;;;7320696;19;9477;-84
2023/08/03 00:13:58;;;;;;;;;;;16.60;99.90;;;;;;7320296;19;9259;-84
2023/08/03 00:16:27;;;;;;;;;;;16.50;99.90;;;;;;7321958;19;9508;-83
2023/08/03 00:18:56;;;;;;;;;;;16.50;99.90;;;;;;7320657;19;9288;-84
2023/08/03 00:21:27;;;;;;;;;;;16.60;99.90;;;;;;7321144;19;9745;-83
2023/08/03 00:23:56;;;;;;;;;;;16.60;99.90;;;;;;7319596;19;9479;-83
2023/08/03 00:26:25;;;;;;;;;;;16.60;99.90;;;;;;7319071;19;10057;-84
2023/08/03 00:28:54;;;;;;;;;;;16.50;99.90;;;;;;7319931;19;9399;-84
2023/08/03 00:31:23;;;;;;;;;;;16.50;99.90;;;;;;7320476;19;9541;-84
2023/08/03 00:33:53;;;;;;;;;;;16.50;99.90;;;;;;7320812;19;9257;-83
2023/08/03 00:36:22;;;;;;;;;;;16.50;99.90;;;;;;7321577;19;9118;-85
2023/08/03 00:38:53;;;;;;;;;;;16.40;99.90;;;;;;7320850;19;10936;-84
2023/08/03 00:41:22;;;;;;;;;;;16.40;99.90;;;;;;7321088;19;9466;-84
2023/08/03 00:43:51;;;;;;;;;;;16.40;99.90;;;;;;7320611;19;9337;-83
2023/08/03 00:46:20;;;;;;;;;;;16.40;99.90;;;;;;7319990;19;9379;-85
2023/08/03 00:48:49;;;;;;;;;;;16.40;99.90;;;;;;7319189;19;9600;-84
2023/08/03 00:51:18;;;;;;;;;;;16.40;99.90;;;;;;7319663;19;9221;-83
2023/08/03 00:53:47;;;;;;;;;;;16.40;99.90;;;;;;7321510;19;9365;-84
2023/08/03 00:56:19;;;;;;;;;;;16.30;99.90;;;;;;7319156;19;9156;-85
2023/08/03 00:58:48;;;;;;;;;;;16.30;99.90;;;;;;7320843;19;9387;-84
2023/08/03 01:01:17;;;;;;;;;;;16.40;99.90;;;;;;7316523;19;9204;-84
2023/08/03 01:03:49;;;;;;;;;;;16.30;99.90;;;;;;7318316;19;10420;-86
2023/08/03 01:06:18;;;;;;;;;;;16.30;99.90;;;;;;7319174;19;9364;-84
2023/08/03 01:08:44;;;;;;;;;;;16.30;99.90;;;;;;7320167;19;9442;-84
2023/08/03 01:11:13;;;;;;;;;;;16.40;99.90;;;;;;7318295;19;10969;-84
2023/08/03 01:13:45;;;;;;;;;;;16.40;99.90;;;;;;7320383;19;9475;-85
2023/08/03 01:16:15;;;;;;;;;;;16.30;99.90;;;;;;7319421;19;9254;-84
2023/08/03 01:18:45;;;;;;;;;;;16.30;99.90;;;;;;7320065;19;9094;-85
2023/08/03 01:21:15;;;;;;;;;;;16.30;99.90;;;;;;7320173;19;9249;-84
2023/08/03 01:23:47;;;;;;;;;;;16.30;99.90;;;;;;7320315;19;9426;-84
2023/08/03 01:26:16;;;;;;;;;;;16.30;99.90;;;;;;7320627;19;9305;-85
2023/08/03 01:28:45;;;;;;;;;;;16.30;99.90;;;;;;7319934;19;9498;-85
2023/08/03 01:31:14;;;;;;;;;;;16.40;99.90;;;;;;7319456;19;8945;-84
2023/08/03 01:33:43;;;;;;;;;;;16.30;99.90;;;;;;7318573;19;9105;-85
2023/08/03 01:36:13;;;;;;;;;;;16.30;99.90;;;;;;7319358;19;9261;-85
2023/08/03 01:38:42;;;;;;;;;;;16.30;99.90;;;;;;7324237;19;9399;-83
2023/08/03 01:41:13;;;;;;;;;;;16.30;99.90;;;;;;7326429;19;9477;-85
2023/08/03 01:43:42;;;;;;;;;;;16.20;99.90;;;;;;7326140;19;9317;-84
2023/08/03 01:46:11;;;;;;;;;;;16.20;99.90;;;;;;7326613;19;9166;-84
2023/08/03 01:48:40;;;;;;;;;;;16.20;99.90;;;;;;7325492;19;10181;-84
2023/08/03 01:51:09;;;;;;;;;;;16.20;99.90;;;;;;7326390;19;10724;-85
2023/08/03 01:53:38;;;;;;;;;;;16.30;99.90;;;;;;7325266;19;9450;-84
2023/08/03 01:56:07;;;;;;;;;;;16.30;99.90;;;;;;7326817;19;9258;-84
2023/08/03 01:58:38;;;;;;;;;;;16.40;99.90;;;;;;7325945;19;9245;-84
2023/08/03 02:01:07;;;;;;;;;;;16.40;99.90;;;;;;7324926;19;9558;-84
2023/08/03 02:03:36;;;;;;;;;;;16.30;99.90;;;;;;7326426;19;9118;-84
2023/08/03 02:06:05;;;;;;;;;;;16.40;99.90;;;;;;7330079;19;9277;-84
2023/08/03 02:08:34;;;;;;;;;;;16.40;99.90;;;;;;7329667;19;11223;-85
2023/08/03 02:11:03;;;;;;;;;;;16.50;99.90;;;;;;7326484;19;9501;-84
2023/08/03 02:13:33;;;;;;;;;;;16.50;99.90;;;;;;7326483;19;9274;-84
2023/08/03 02:16:10;;;;;;;;;;;16.50;99.90;;;;;;7324594;19;9197;-84
2023/08/03 02:18:39;;;;;;;;;;;16.50;99.90;;;;;;7326126;19;9495;-85
2023/08/03 02:21:08;;;;;;;;;;;16.50;99.90;;;;;;7325351;19;9499;-84
2023/08/03 02:23:37;;;;;;;;;;;16.60;99.90;;;;;;7325551;19;10967;-84
2023/08/03 02:26:06;;;;;;;;;;;16.60;99.90;;;;;;7324546;19;9526;-83
2023/08/03 02:28:35;;;;;;;;;;;16.60;99.90;;;;;;7323626;19;9562;-84
2023/08/03 02:31:07;;;;;;;;;;;16.50;99.90;;;;;;7324558;19;9253;-84
2023/08/03 02:33:36;;;;;;;;;;;16.50;99.90;;;;;;7325454;19;9154;-84
2023/08/03 02:36:05;;;;;;;;;;;16.50;99.90;;;;;;7323825;19;9120;-85
2023/08/03 02:38:35;;;;;;;;;;;16.60;99.90;;;;;;7324851;19;9453;-83
2023/08/03 02:41:03;;;;;;;;;;;16.60;99.90;;;;;;7323901;19;9247;-84
2023/08/03 02:43:32;;;;;;;;;;;16.50;99.90;;;;;;7325825;19;9476;-84
2023/08/03 02:46:01;;;;;;;;;;;16.50;99.90;;;;;;7323680;19;9489;-86
2023/08/03 02:48:33;;;;;;;;;;;16.50;99.90;;;;;;7325009;19;9469;-84
2023/08/03 02:51:02;;;;;;;;;;;16.70;99.90;;;;;;7322761;19;9492;-84
2023/08/03 02:53:31;;;;;;;;;;;16.90;99.90;;;;;;7322200;19;9127;-84
2023/08/03 02:56:00;;;;;;;;;;;16.80;99.90;;;;;;7325001;19;9411;-83
2023/08/03 02:58:28;;;;;;;;;;;16.80;99.90;;;;;;7324408;19;9178;-84
2023/08/03 03:00:57;;;;;;;;;;;16.80;99.90;;;;;;7322308;19;9267;-84
2023/08/03 03:03:26;;;;;;;;;;;16.80;99.90;;;;;;7323233;19;9221;-84
2023/08/03 03:05:58;;;;;;;;;;;16.80;99.90;;;;;;7324296;19;9226;-84
2023/08/03 03:08:27;;;;;;;;;;;16.80;99.90;;;;;;7323313;19;9555;-84
2023/08/03 03:10:56;;;;;;;;;;;16.90;99.90;;;;;;7323863;19;9614;-83
2023/08/03 03:13:25;;;;;;;;;;;17.00;99.90;;;;;;7320749;19;9474;-84
2023/08/03 03:15:54;;;;;;;;;;;17.00;99.90;;;;;;7323385;19;9174;-84
2023/08/03 03:18:23;;;;;;;;;;;17.00;99.90;;;;;;7322631;19;9529;-83
2023/08/03 03:20:52;;;;;;;;;;;17.00;99.90;;;;;;7323929;19;9651;-84
2023/08/03 03:23:23;;;;;;;;;;;17.00;99.90;;;;;;7322801;19;9258;-84
2023/08/03 03:25:52;;;;;;;;;;;17.00;99.90;;;;;;7324187;19;9293;-84
2023/08/03 03:28:21;;;;;;;;;;;17.00;99.90;;;;;;7320083;19;9268;-84
2023/08/03 03:30:50;;;;;;;;;;;17.00;99.90;;;;;;7323508;19;9233;-84
2023/08/03 03:33:19;;;;;;;;;;;17.00;99.90;;;;;;7321413;19;9256;-84
2023/08/03 03:35:48;;;;;;;;;;;17.00;99.90;;;;;;7323405;19;9241;-85
2023/08/03 03:38:17;;;;;;;;;;;17.10;99.90;;;;;;7322628;19;9125;-84
2023/08/03 03:40:49;;;;;;;;;;;17.20;99.90;;;;;;7321502;19;11023;-84
2023/08/03 03:43:18;;;;;;;;;;;17.20;99.90;;;;;;7322830;19;9269;-84
2023/08/03 03:45:47;;;;;;;;;;;17.20;99.90;;;;;;7322183;19;10327;-83
2023/08/03 03:48:16;;;;;;;;;;;17.30;99.90;;;;;;7322807;19;9400;-84
2023/08/03 03:50:44;;;;;;;;;;;17.30;99.90;;;;;;7321537;19;9304;-85
2023/08/03 03:53:13;;;;;;;;;;;17.20;99.90;;;;;;7321124;19;9197;-84
2023/08/03 03:55:42;;;;;;;;;;;17.30;99.90;;;;;;7321913;19;9206;-85
2023/08/03 03:58:14;;;;;;;;;;;17.20;99.90;;;;;;7322339;19;9289;-84
2023/08/03 04:00:43;;;;;;;;;;;17.20;99.90;;;;;;7320228;19;9267;-83
2023/08/03 04:03:13;;;;;;;;;;;17.20;99.90;;;;;;7322416;19;9254;-83
2023/08/03 04:05:42;;;;;;;;;;;17.10;99.90;;;;;;7321381;19;9205;-84
2023/08/03 04:08:11;;;;;;;;;;;17.10;99.90;;;;;;7323703;19;9256;-83
2023/08/03 04:10:40;;;;;;;;;;;17.10;99.90;;;;;;7323131;19;9318;-84
2023/08/03 04:13:09;;;;;;;;;;;17.00;99.90;;;;;;7325773;19;9226;-84
2023/08/03 04:15:40;;;;;;;;;;;17.10;99.90;;;;;;7325289;19;9394;-85
2023/08/03 04:18:09;;;;;;;;;;;17.20;99.90;;;;;;7322688;19;9249;-85
2023/08/03 04:20:38;;;;;;;;;;;17.20;99.90;;;;;;7322634;19;11708;-84
2023/08/03 04:23:07;;;;;;;;;;;17.30;99.90;;;;;;7321710;19;11511;-84
2023/08/03 04:25:36;;;;;;;;;;;17.30;99.90;;;;;;7321868;19;9543;-85
2023/08/03 04:28:04;;;;;;;;;;;17.30;99.90;;;;;;7318904;19;9166;-83
2023/08/03 04:30:33;;;;;;;;;;;17.40;99.90;;;;;;7321612;19;9120;-85
2023/08/03 04:33:05;;;;;;;;;;;17.40;99.90;;;;;;7319517;19;9225;-83
2023/08/03 04:35:34;;;;;;;;;;;17.40;99.90;;;;;;7321399;19;9154;-84
2023/08/03 04:38:03;;;;;;;;;;;17.50;99.90;;;;;;7320188;19;9250;-83
2023/08/03 04:40:32;;;;;;;;;;;17.60;99.90;;;;;;7320936;19;9138;-84
2023/08/03 04:43:01;;;;;;;;;;;17.60;99.90;;;;;;7319940;19;9548;-83
2023/08/03 04:45:31;;;;;;;;;;;17.60;99.90;;;;;;7320485;19;9348;-84
2023/08/03 04:48:00;;;;;;;;;;;17.70;99.90;;;;;;7319815;19;9218;-84
2023/08/03 04:50:31;;;;;;;;;;;17.80;99.90;;;;;;7320995;19;9229;-84
2023/08/03 04:53:00;;;;;;;;;;;17.80;99.90;;;;;;7319096;19;9450;-84
2023/08/03 04:55:29;;;;;;;;;;;17.80;99.90;;;;;;7320392;19;10357;-83
2023/08/03 04:57:58;;;;;;;;;;;17.70;99.90;;;;;;7320564;19;9302;-84
2023/08/03 05:00:27;;;;;;;;;;;17.90;99.90;;;;;;7319710;19;9217;-84
2023/08/03 05:02:56;;;;;;;;;;;18.00;99.90;;;;;;7321157;19;9535;-84
2023/08/03 05:05:25;;;;;;;;;;;18.00;99.90;;;;;;7319803;19;9376;-84
2023/08/03 05:07:56;;;;;;;;;;;18.10;99.90;;;;;;7320606;19;9163;-84
2023/08/03 05:10:25;;;;;;;;;;;18.10;99.90;;;;;;7319597;19;9135;-84
2023/08/03 05:12:54;;;;;;;;;;;18.10;99.90;;;;;;7322364;19;9230;-85
2023/08/03 05:15:23;;;;;;;;;;;18.10;99.90;;;;;;7327278;19;11233;-85
2023/08/03 05:17:52;;;;;;;;;;;18.00;99.90;;;;;;7327743;19;9501;-84
2023/08/03 05:20:21;;;;;;;;;;;18.00;99.90;;;;;;7326723;19;9190;-85
2023/08/03 05:22:50;;;;;;;;;;;18.00;99.90;;;;;;7327396;19;9174;-84
2023/08/03 05:25:21;;;;;;;;;;;17.90;99.90;;;;;;7326629;19;9252;-84
2023/08/03 05:27:50;;;;;;;;;;;17.90;99.90;;;;;;7326687;19;9260;-83
2023/08/03 05:30:20;;;;;;;;;;;17.80;99.90;;;;;;7328492;19;9280;-84
2023/08/03 05:32:49;;;;;;;;;;;17.80;99.90;;;;;;7326666;19;9537;-85
2023/08/03 05:35:18;;;;;;;;;;;17.80;99.90;;;;;;7327499;19;8944;-84
2023/08/03 05:37:47;;;;;;;;;;;17.70;99.90;;;;;;7327114;19;9363;-84
2023/08/03 05:40:16;;;;;;;;;;;17.70;99.90;;;;;;7327811;19;9342;-84
2023/08/03 05:42:48;;;;;;;;;;;17.80;99.90;;;;;;7326466;19;9465;-84
2023/08/03 05:45:37;;;;;;;;;;;17.70;99.90;;;;;;7327343;19;9336;-84
2023/08/03 05:48:12;;;;;;;;;;;17.70;99.90;;;;;;7326694;19;9509;-83
2023/08/03 05:50:44;;;;;;;;;;;17.80;99.90;;;;;;7329412;19;9330;-85
2023/08/03 05:53:13;;;;;;;;;;;17.90;99.90;;;;;;7325943;19;9261;-85
2023/08/03 05:55:43;;;;;;;;;;;17.90;99.90;;;;;;7325453;19;9324;-84
2023/08/03 05:58:17;;;;;;;;;;;17.90;99.90;;;;;;7326604;19;8944;-84
2023/08/03 06:00:51;;;;;;;;;;;17.80;99.90;;;;;;7323750;19;9283;-84
2023/08/03 06:03:21;;;;;;;;;;;17.80;99.90;;;;;;7326118;19;9225;-85
2023/08/03 06:05:51;;;;;;;;;;;17.70;99.90;;;;;;7325331;19;9130;-84
2023/08/03 06:08:22;;;;;;;;;;;17.70;99.90;;;;;;7326364;19;9322;-84
2023/08/03 06:10:53;;;;;;;;;;;17.60;99.90;;;;;;7325211;19;11154;-84
2023/08/03 06:13:29;;;;;;;;;;;17.60;99.90;;;;;;7325310;19;9181;-84
2023/08/03 06:15:59;;;;;;;;;;;17.60;99.90;;;;;;7326254;19;10216;-83
2023/08/03 06:18:28;;;;;;;;;;;17.70;99.90;;;;;;7327332;19;9202;-85
2023/08/03 06:20:57;;;;;;;;;;;17.70;99.90;;;;;;7334912;19;9117;-85
2023/08/03 06:23:29;;;;;;;;;;;17.70;99.90;;;;;;7333809;19;9321;-84
2023/08/03 06:25:59;;;;;;;;;;;17.60;99.90;;;;;;7324626;19;10436;-84
2023/08/03 06:28:30;;;;;;;;;;;17.40;99.90;;;;;;7323719;19;9304;-84
2023/08/03 06:30:59;;;;;;;;;;;17.20;99.90;;;;;;7324114;19;9249;-84
2023/08/03 06:33:28;;;;;;;;;;;17.00;99.90;;;;;;7324520;19;9263;-84
2023/08/03 06:35:58;;;;;;;;;;;16.90;99.90;;;;;;7324230;19;9474;-84
2023/08/03 06:38:27;;;;;;;;;;;17.00;99.90;;;;;;7325287;19;9134;-84
2023/08/03 06:40:56;;;;;;;;;;;17.00;99.90;;;;;;7324206;19;9237;-84
2023/08/03 06:43:25;;;;;;;;;;;17.00;99.90;;;;;;7326354;19;10357;-85
2023/08/03 06:45:57;;;;;;;;;;;17.10;99.90;;;;;;7324741;19;9500;-84
2023/08/03 06:48:26;;;;;;;;;;;17.10;99.90;;;;;;7325412;19;9228;-84
2023/08/03 06:50:57;;;;;;;;;;;17.10;99.90;;;;;;7326109;19;9142;-85
2023/08/03 06:56:07;;;;;;;;;;;17.00;99.90;;;;;;7321108;19;9570;-85
2023/08/03 06:58:36;;;;;;;;;;;17.00;99.90;;;;;;7324834;19;9111;-85
2023/08/03 07:01:08;;;;;;;;;;;17.10;99.90;;;;;;7322260;19;9512;-84
2023/08/03 07:03:38;;;;;;;;;;;17.20;99.90;;;;;;7325839;19;9265;-84
2023/08/03 07:06:07;;;;;;;;;;;17.30;99.90;;;;;;7324502;19;8948;-85
2023/08/03 07:08:35;;;;;;;;;;;17.50;99.90;;;;;;7324811;19;9497;-84
2023/08/03 07:11:04;;;;;;;;;;;17.70;99.90;;;;;;7324480;19;10378;-84
2023/08/03 07:13:33;;;;;;;;;;;17.90;99.90;;;;;;7323445;19;9481;-84
2023/08/03 07:16:11;;;;;;;;;;;18.30;99.90;;;;;;7324105;19;9263;-85
2023/08/03 07:18:40;;;;;;;;;;;18.50;99.90;;;;;;7324618;19;9266;-84
2023/08/03 07:21:14;;;;;;;;;;;18.60;99.90;;;;;;7324124;19;9245;-85
2023/08/03 07:23:46;;;;;;;;;;;18.80;99.90;;;;;;7323873;19;9241;-85
2023/08/03 07:26:18;;;;;;;;;;;19.00;99.90;;;;;;7322915;19;9222;-85
2023/08/03 07:28:49;;;;;;;;;;;19.30;99.90;;;;;;7324111;19;9126;-83
2023/08/03 07:31:20;;;;;;;;;;;19.60;99.90;;;;;;7323370;19;9303;-85
2023/08/03 07:33:49;;;;;;;;;;;19.80;99.90;;;;;;7322445;19;9606;-84
2023/08/03 07:36:19;;;;;;;;;;;20.00;99.90;;;;;;7323266;19;9629;-85
2023/08/03 07:38:48;;;;;;;;;;;20.20;99.90;;;;;;7323809;19;9564;-84
2023/08/03 07:41:17;;;;;;;;;;;20.00;99.90;;;;;;7323462;19;9609;-84
2023/08/03 07:43:46;;;;;;;;;;;19.90;99.90;;;;;;7322798;19;9471;-84
2023/08/03 07:46:16;;;;;;;;;;;19.70;99.90;;;;;;7323087;19;9747;-84
2023/08/03 07:48:48;;;;;;;;;;;19.50;99.90;;;;;;7321306;19;9406;-85
2023/08/03 07:51:19;;;;;;;;;;;19.70;99.90;;;;;;7323162;19;9344;-85
2023/08/03 07:53:47;;;;;;;;;;;19.90;99.90;;;;;;7321056;19;9484;-84
2023/08/03 07:56:17;;;;;;;;;;;20.10;99.90;;;;;;7322385;19;9491;-85
2023/08/03 07:58:46;;;;;;;;;;;20.20;99.90;;;;;;7321228;19;11201;-83
2023/08/03 08:01:16;;;;;;;;;;;20.10;99.90;;;;;;7319632;19;9618;-84
2023/08/03 08:03:48;;;;;;;;;;;20.00;99.90;;;;;;7321476;19;9392;-83
2023/08/03 08:06:19;;;;;;;;;;;20.00;99.90;;;;;;7322081;19;9537;-84
2023/08/03 08:08:50;;;;;;;;;;;20.00;99.90;;;;;;7321677;19;11282;-83
2023/08/03 08:11:20;;;;;;;;;;;19.90;99.90;;;;;;7321750;19;9492;-83
2023/08/03 08:13:49;;;;;;;;;;;19.90;99.90;;;;;;7319777;19;9438;-84
2023/08/03 08:16:19;;;;;;;;;;;20.20;99.90;;;;;;7321434;19;9220;-83
2023/08/03 08:18:50;;;;;;;;;;;20.60;99.90;;;;;;7320816;19;10836;-83
2023/08/03 08:21:19;;;;;;;;;;;21.00;99.90;;;;;;7321988;19;9237;-84
2023/08/03 08:23:48;;;;;;;;;;;21.20;99.90;;;;;;7320980;19;9255;-84
2023/08/03 08:26:19;;;;;;;;;;;21.30;99.90;;;;;;7321596;19;9569;-83
2023/08/03 08:28:52;;;;;;;;;;;21.40;99.90;;;;;;7324337;19;9217;-83
2023/08/03 08:31:21;;;;;;;;;;;21.60;99.90;;;;;;7323326;19;10370;-84
2023/08/03 08:33:53;;;;;;;;;;;21.70;99.90;;;;;;7320474;19;10379;-84
2023/08/03 08:36:21;;;;;;;;;;;21.70;99.90;;;;;;7321606;19;9223;-84
2023/08/03 08:38:50;;;;;;;;;;;21.70;99.90;;;;;;7320754;19;9209;-83
2023/08/03 08:41:19;;;;;;;;;;;21.60;99.90;;;;;;7320808;19;10373;-84
2023/08/03 08:43:48;;;;;;;;;;;21.50;99.90;;;;;;7320820;19;9570;-83
2023/08/03 08:46:18;;;;;;;;;;;21.40;99.90;;;;;;7320344;19;9454;-84
2023/08/03 08:48:47;;;;;;;;;;;21.30;99.90;;;;;;7319269;19;9229;-84
2023/08/03 08:51:21;;;;;;;;;;;21.30;99.90;;;;;;7319456;19;9185;-83
2023/08/03 08:53:55;;;;;;;;;;;21.40;99.90;;;;;;7320194;19;9122;-83
2023/08/03 08:56:24;;;;;;;;;;;21.50;99.90;;;;;;7320782;19;11185;-83
2023/08/03 08:58:53;;;;;;;;;;;21.50;99.90;;;;;;7320407;19;9493;-84
2023/08/03 09:01:22;;;;;;;;;;;21.40;99.90;;;;;;7317557;19;9793;-84
2023/08/03 09:03:54;;;;;;;;;;;21.30;99.90;;;;;;7320289;19;10158;-84
2023/08/03 09:06:26;;;;;;;;;;;21.20;99.90;;;;;;7319300;19;10337;-84
2023/08/03 09:08:58;;;;;;;;;;;21.00;99.90;;;;;;7320141;19;9466;-84
2023/08/03 09:11:40;;;;;;;;;;;20.90;99.90;;;;;;7319207;19;9587;-83
2023/08/03 09:14:10;;;;;;;;;;;21.00;99.90;;;;;;7319386;19;9110;-84
2023/08/03 09:16:39;;;;;;;;;;;21.10;99.90;;;;;;7319889;19;9352;-83
2023/08/03 09:19:08;;;;;;;;;;;21.30;99.90;;;;;;7320514;19;9266;-83
2023/08/03 09:21:40;;;;;;;;;;;21.50;99.90;;;;;;7320557;19;9634;-83
2023/08/03 09:24:20;;;;;;;;;;;21.60;99.90;;;;;;7320190;19;11189;-83
2023/08/03 09:26:49;;;;;;;;;;;21.60;99.90;;;;;;7319314;19;9623;-84
2023/08/03 09:29:18;;;;;;;;;;;21.50;99.90;;;;;;7319434;19;9486;-84
2023/08/03 09:31:47;;;;;;;;;;;21.10;99.90;;;;;;7320286;19;9221;-84
2023/08/03 09:34:16;;;;;;;;;;;20.90;99.90;;;;;;7319616;19;8945;-83
2023/08/03 09:36:51;;;;;;;;;;;20.90;99.90;;;;;;7319196;19;8944;-83
2023/08/03 09:39:20;;;;;;;;;;;20.90;99.90;;;;;;7318819;19;9280;-83
2023/08/03 09:41:52;;;;;;;;;;;21.10;99.90;;;;;;7319281;19;10639;-82
2023/08/03 09:44:25;;;;;;;;;;;21.30;99.90;;;;;;7319430;19;9666;-83
2023/08/03 09:46:55;;;;;;;;;;;21.60;99.90;;;;;;7319964;19;9173;-83
2023/08/03 09:49:24;;;;;;;;;;;21.60;99.90;;;;;;7319038;19;9487;-84
2023/08/03 09:51:59;;;;;;;;;;;21.60;99.90;;;;;;7318939;19;9208;-83
2023/08/03 09:54:38;;;;;;;;;;;21.40;99.90;;;;;;7318522;19;9356;-83
2023/08/03 09:57:13;;;;;;;;;;;21.30;99.90;;;;;;7319589;19;9378;-83
2023/08/03 09:59:47;;;;;;;;;;;21.10;99.90;;;;;;7322310;19;9219;-83
2023/08/03 10:02:20;;;;;;;;;;;21.10;99.90;;;;;;7326083;19;9297;-83
2023/08/03 10:04:58;;;;;;;;;;;21.20;99.90;;;;;;7325626;19;9305;-83
2023/08/03 10:07:43;;;;;;;;;;;21.30;99.90;;;;;;7326489;19;9528;-83
2023/08/03 10:10:18;;;;;;;;;;;21.50;99.90;;;;;;7327467;19;9205;-83
2023/08/03 10:12:53;;;;;;;;;;;21.70;99.90;;;;;;7325664;19;9275;-83
2023/08/03 10:15:23;;;;;;;;;;;21.80;99.90;;;;;;7323624;19;9459;-82
2023/08/03 10:17:54;;;;;;;;;;;21.90;99.90;;;;;;7324722;19;9312;-83
2023/08/03 10:20:24;;;;;;;;;;;21.80;99.90;;;;;;7325930;19;9465;-83
2023/08/03 10:23:12;;;;;;;;;;;21.70;99.90;;;;;;7324481;19;9546;-83
2023/08/03 10:25:58;;;;;;;;;;;21.70;99.90;;;;;;7325321;19;9489;-81
2023/08/03 10:28:28;;;;;;;;;;;22.00;99.90;;;;;;7323145;19;9213;-83
2023/08/03 10:31:15;;;;;;;;;;;22.20;99.90;;;;;;7324056;19;9249;-82
2023/08/03 10:34:06;;;;;;;;;;;22.40;99.90;;;;;;7326045;19;9236;-83
2023/08/03 10:36:51;;;;;;;;;;;22.30;99.90;;;;;;7328968;19;9198;-83
2023/08/03 10:39:55;;;;;;;;;;;22.40;99.90;;;;;;7331813;19;9733;-83
2023/08/03 10:42:26;;;;;;;;;;;22.60;99.90;;;;;;7328003;19;9258;-83
2023/08/03 10:44:57;;;;;;;;;;;22.70;99.90;;;;;;7325603;19;9508;-83
2023/08/03 10:47:29;;;;;;;;;;;22.50;99.90;;;;;;7333171;19;9007;-82
2023/08/03 10:50:00;;;;;;;;;;;22.40;99.90;;;;;;7335149;19;9120;-83
2023/08/03 10:52:32;;;;;;;;;;;22.20;99.90;;;;;;7335876;19;9111;-84
2023/08/03 10:55:26;;;;;;;;;;;21.90;99.90;;;;;;7336238;19;9275;-83
2023/08/03 10:57:56;;;;;;;;;;;21.60;99.90;;;;;;7335397;19;9280;-84
2023/08/03 11:00:26;;;;;;;;;;;21.60;99.90;;;;;;7331083;19;9489;-83
2023/08/03 11:02:54;;;;;;;;;;;21.50;99.90;;;;;;7332156;19;9201;-84
2023/08/03 11:05:24;;;;;;;;;;;21.40;99.90;;;;;;7326660;19;9181;-83
2023/08/03 11:07:52;;;;;;;;;;;21.40;99.90;;;;;;7324156;19;9243;-84
2023/08/03 11:10:25;;;;;;;;;;;21.50;99.90;;;;;;7324358;19;9174;-84
2023/08/03 11:12:55;;;;;;;;;;;21.70;99.90;;;;;;7324933;19;9215;-84
2023/08/03 11:15:24;;;;;;;;;;;21.90;99.90;;;;;;7322807;19;9395;-83
2023/08/03 11:17:53;;;;;;;;;;;22.10;99.90;;;;;;7325545;19;9248;-83
2023/08/03 11:20:22;;;;;;;;;;;22.40;99.90;;;;;;7322781;19;9248;-82
2023/08/03 11:22:51;;;;;;;;;;;22.50;99.90;;;;;;7323374;19;9577;-83
2023/08/03 11:25:23;;;;;;;;;;;22.40;99.90;;;;;;7322377;19;9202;-85
2023/08/03 11:27:54;;;;;;;;;;;21.80;99.90;;;;;;7322804;19;9133;-84
2023/08/03 11:30:25;;;;;;;;;;;21.50;99.90;;;;;;7322187;19;9430;-84
2023/08/03 11:33:00;;;;;;;;;;;21.40;99.90;;;;;;7323733;19;9547;-84
2023/08/03 11:35:30;;;;;;;;;;;21.30;99.90;;;;;;7321013;19;9265;-83
2023/08/03 11:37:59;;;;;;;;;;;21.50;99.90;;;;;;7323484;19;9247;-84
2023/08/03 11:40:31;;;;;;;;;;;21.60;99.90;;;;;;7321964;19;9536;-84
2023/08/03 11:43:01;;;;;;;;;;;21.70;99.90;;;;;;7323478;19;9458;-84
2023/08/03 11:45:32;;;;;;;;;;;21.90;99.90;;;;;;7321798;19;9633;-83
2023/08/03 11:48:01;;;;;;;;;;;22.20;99.90;;;;;;7322729;19;10683;-83
2023/08/03 11:50:30;;;;;;;;;;;22.40;99.90;;;;;;7321197;19;9265;-83
2023/08/03 11:53:02;;;;;;;;;;;22.70;99.90;;;;;;7322678;19;9510;-84
2023/08/03 11:55:36;;;;;;;;;;;22.70;99.90;;;;;;7320657;19;11123;-83
2023/08/03 11:58:10;;;;;;;;;;;22.60;99.90;;;;;;7323113;19;10343;-83
2023/08/03 12:00:39;;;;;;;;;;;22.30;99.90;;;;;;7320037;19;10360;-83
2023/08/03 12:03:08;;;;;;;;;;;22.20;99.90;;;;;;7322766;19;9232;-83
2023/08/03 12:05:51;;;;;;;;;;;22.20;99.90;;;;;;7320599;19;9437;-82
2023/08/03 12:08:22;;;;;;;;;;;22.50;99.90;;;;;;7322405;19;9613;-83
2023/08/03 12:11:06;;;;;;;;;;;22.60;99.90;;;;;;7320645;19;9128;-83
2023/08/03 12:13:35;;;;;;;;;;;22.60;99.90;;;;;;7321843;19;9446;-84
2023/08/03 12:16:05;;;;;;;;;;;22.40;99.90;;;;;;7320433;19;9308;-83
2023/08/03 12:18:34;;;;;;;;;;;22.50;99.90;;;;;;7321640;19;9365;-83
2023/08/03 12:21:03;;;;;;;;;;;22.30;99.90;;;;;;7320901;19;9274;-83
2023/08/03 12:23:32;;;;;;;;;;;22.50;99.90;;;;;;7319228;19;9253;-84
2023/08/03 12:26:01;;;;;;;;;;;22.60;99.90;;;;;;7320212;19;9284;-83
2023/08/03 12:28:32;;;;;;;;;;;22.50;99.90;;;;;;7319455;19;9268;-83
2023/08/03 12:31:01;;;;;;;;;;;22.30;99.90;;;;;;7320077;19;9260;-84
2023/08/03 12:33:30;;;;;;;;;;;22.10;99.90;;;;;;7320721;19;9228;-84
2023/08/03 12:35:59;;;;;;;;;;;21.90;99.90;;;;;;7319454;19;9434;-84
2023/08/03 12:38:28;;;;;;;;;;;21.80;99.90;;;;;;7320815;19;9492;-84
2023/08/03 12:40:57;;;;;;;;;;;21.80;99.90;;;;;;7320446;19;9305;-83
2023/08/03 12:43:26;;;;;;;;;;;21.90;99.90;;;;;;7322594;19;9446;-84
2023/08/03 12:45:57;;;;;;;;;;;22.00;99.90;;;;;;7320239;19;10158;-83
2023/08/03 12:48:27;;;;;;;;;;;21.90;99.90;;;;;;7321321;19;9516;-83
2023/08/03 12:50:56;;;;;;;;;;;21.90;99.90;;;;;;7319886;19;9174;-83
2023/08/03 12:53:27;;;;;;;;;;;22.10;99.90;;;;;;7320976;19;9242;-83
2023/08/03 12:55:56;;;;;;;;;;;22.20;99.90;;;;;;7319670;19;9273;-83
2023/08/03 12:58:25;;;;;;;;;;;22.40;99.90;;;;;;7320876;19;9202;-83
2023/08/03 13:00:57;;;;;;;;;;;22.60;99.90;;;;;;7319090;19;9265;-84
2023/08/03 13:03:26;;;;;;;;;;;22.80;99.90;;;;;;7320079;19;9252;-84
2023/08/03 13:05:57;;;;;;;;;;;22.60;99.90;;;;;;7320270;19;9192;-82
2023/08/03 13:08:26;;;;;;;;;;;22.50;99.90;;;;;;7319668;19;9349;-83
2023/08/03 13:10:55;;;;;;;;;;;22.20;99.90;;;;;;7320474;19;11140;-82
2023/08/03 13:13:24;;;;;;;;;;;22.10;99.90;;;;;;7319334;19;9485;-83
2023/08/03 13:15:53;;;;;;;;;;;22.10;99.90;;;;;;7318922;19;11221;-83
2023/08/03 13:18:26;;;;;;;;;;;22.10;99.90;;;;;;7319235;19;9359;-82
2023/08/03 13:20:55;;;;;;;;;;;22.10;99.90;;;;;;7319871;19;9407;-83
2023/08/03 13:23:24;;;;;;;;;;;21.90;99.90;;;;;;7318629;19;9261;-83
2023/08/03 13:25:53;;;;;;;;;;;21.80;99.90;;;;;;7319161;19;9269;-83
2023/08/03 13:28:21;;;;;;;;;;;21.70;99.90;;;;;;7317176;19;9636;-82
2023/08/03 13:30:51;;;;;;;;;;;21.80;99.90;;;;;;7319945;19;9578;-83
2023/08/03 13:33:19;;;;;;;;;;;21.60;99.90;;;;;;7320607;19;10200;-83
2023/08/03 13:35:51;;;;;;;;;;;21.50;99.90;;;;;;7326489;19;9268;-83
2023/08/03 13:38:21;;;;;;;;;;;21.40;99.90;;;;;;7326583;19;9180;-82
2023/08/03 13:40:50;;;;;;;;;;;21.30;99.90;;;;;;7326632;19;9249;-83
2023/08/03 13:43:19;;;;;;;;;;;21.30;99.90;;;;;;7327249;19;9665;-83
2023/08/03 13:45:48;;;;;;;;;;;21.30;99.90;;;;;;7326910;19;9396;-84
2023/08/03 13:48:17;;;;;;;;;;;21.30;99.90;;;;;;7327461;19;9228;-82
2023/08/03 13:50:47;;;;;;;;;;;21.40;99.90;;;;;;7325722;19;10716;-83
2023/08/03 13:53:19;;;;;;;;;;;21.60;99.90;;;;;;7327014;19;9250;-83
2023/08/03 13:55:47;;;;;;;;;;;21.70;99.90;;;;;;7324686;19;9456;-82
2023/08/03 13:58:16;;;;;;;;;;;21.60;99.90;;;;;;7326331;19;9315;-83
2023/08/03 14:01:05;;;;;;;;;;;21.60;99.90;;;;;;7323303;19;9399;-83
2023/08/03 14:03:34;;;;;;;;;;;21.50;99.90;;;;;;7325339;19;9558;-83
2023/08/03 14:06:04;;;;;;;;;;;21.40;99.90;;;;;;7326404;19;9390;-83
2023/08/03 14:08:35;;;;;;;;;;;21.20;99.90;;;;;;7326502;19;9225;-83
2023/08/03 14:11:24;;;;;;;;;;;21.20;99.90;;;;;;7324912;19;9256;-83
2023/08/03 14:13:53;;;;;;;;;;;21.40;99.90;;;;;;7325123;19;9519;-83
2023/08/03 14:16:22;;;;;;;;;;;21.20;99.90;;;;;;7324364;19;9265;-83
2023/08/03 14:18:51;;;;;;;;;;;20.90;99.90;;;;;;7325378;19;9737;-83
2023/08/03 14:21:20;;;;;;;;;;;20.80;99.90;;;;;;7325758;19;9238;-83
2023/08/03 14:23:51;;;;;;;;;;;20.80;99.90;;;;;;7324673;19;9260;-83
2023/08/03 14:26:20;;;;;;;;;;;20.80;99.90;;;;;;7324687;19;9257;-83
2023/08/03 14:28:49;;;;;;;;;;;20.80;99.90;;;;;;7324331;19;9465;-83
2023/08/03 14:31:18;;;;;;;;;;;20.80;99.90;;;;;;7325588;19;9229;-83
2023/08/03 14:33:47;;;;;;;;;;;20.50;99.90;;;;;;7322873;19;9311;-83
2023/08/03 14:36:16;;;;;;;;;;;20.40;99.90;;;;;;7324281;19;9237;-83
2023/08/03 14:38:45;;;;;;;;;;;20.20;99.90;;;;;;7325514;19;9511;-83
2023/08/03 14:41:18;;;;;;;;;;;19.90;99.90;;;;;;7324487;19;9005;-84
2023/08/03 14:43:48;;;;;;;;;;;19.80;99.90;;;;;;7325965;19;9616;-84
2023/08/03 14:46:17;;;;;;;;;;;19.80;99.90;;;;;;7322890;19;10344;-83
2023/08/03 14:48:46;;;;;;;;;;;19.60;99.90;;;;;;7325767;19;9519;-84
2023/08/03 14:51:16;;;;;;;;;;;19.50;99.90;;;;;;7324634;19;9614;-83